sensor_id;sensor_type;location;lat;lon;timestamp;pressure;altitude;pressure_sealevel;temperature;humidity
55466;BME280;41329;41.594;23.810;2023-04-01T00:01:48;94589.63;;;11.38;49.03
55466;BME280;41329;41.594;23.810;2023-04-01T00:04:14;94581.72;;;11.37;48.93
55466;BME280;41329;41.594;23.810;2023-04-01T00:06:40;94608.25;;;11.52;49.11
55466;BME280;41329;41.594;23.810;2023-04-01T00:09:06;94614.59;;;11.56;48.66
55466;BME280;41329;41.594;23.810;2023-04-01T00:11:32;94595.97;;;11.46;48.41
55466;BME280;41329;41.594;23.810;2023-04-01T00:13:57;94590.81;;;11.44;48.46
55466;BME280;41329;41.594;23.810;2023-04-01T00:16:23;94588.84;;;11.45;48.65
55466;BME280;41329;41.594;23.810;2023-04-01T00:18:50;94597.94;;;11.52;48.95
55466;BME280;41329;41.594;23.810;2023-04-01T00:21:15;94582.91;;;11.43;49.04
55466;BME280;41329;41.594;23.810;2023-04-01T00:23:41;94604.28;;;11.46;49.18
55466;BME280;41329;41.594;23.810;2023-04-01T00:26:07;94588.44;;;11.29;49.31
55466;BME280;41329;41.594;23.810;2023-04-01T00:28:34;94593.59;;;11.41;49.13
55466;BME280;41329;41.594;23.810;2023-04-01T00:31:04;94584.47;;;11.23;49.55
55466;BME280;41329;41.594;23.810;2023-04-01T00:33:30;94596.75;;;11.22;49.56
55466;BME280;41329;41.594;23.810;2023-04-01T00:35:55;94582.91;;;11.22;49.89
55466;BME280;41329;41.594;23.810;2023-04-01T00:38:21;94582.88;;;11.11;49.81
55466;BME280;41329;41.594;23.810;2023-04-01T00:40:46;94589.19;;;11.12;49.68
55466;BME280;41329;41.594;23.810;2023-04-01T00:43:17;94603.06;;;11.22;49.61
55466;BME280;41329;41.594;23.810;2023-04-01T00:45:46;94584.88;;;11.21;50.28
55466;BME280;41329;41.594;23.810;2023-04-01T00:48:21;94595.53;;;11.26;50.06
55466;BME280;41329;41.594;23.810;2023-04-01T00:50:55;94550.03;;;10.92;50.17
55466;BME280;41329;41.594;23.810;2023-04-01T00:53:22;94573.00;;;11.14;50.33
55466;BME280;41329;41.594;23.810;2023-04-01T00:56:04;94589.63;;;11.28;50.60
55466;BME280;41329;41.594;23.810;2023-04-01T00:58:33;94593.59;;;11.27;50.68
55466;BME280;41329;41.594;23.810;2023-04-01T01:01:00;94578.91;;;11.02;50.59
55466;BME280;41329;41.594;23.810;2023-04-01T01:03:26;94546.06;;;10.93;50.65
55466;BME280;41329;41.594;23.810;2023-04-01T01:08:50;94585.66;;;11.25;50.42
55466;BME280;41329;41.594;23.810;2023-04-01T01:11:22;94565.09;;;11.26;50.83
55466;BME280;41329;41.594;23.810;2023-04-01T01:16:38;94525.09;;;10.85;51.28
55466;BME280;41329;41.594;23.810;2023-04-01T01:27:23;94545.66;;;10.95;51.83
55466;BME280;41329;41.594;23.810;2023-04-01T01:32:49;94544.47;;;10.82;52.19
55466;BME280;41329;41.594;23.810;2023-04-01T01:37:50;94558.28;;;10.82;52.40
55466;BME280;41329;41.594;23.810;2023-04-01T01:40:18;94517.53;;;10.58;52.29
55466;BME280;41329;41.594;23.810;2023-04-01T01:42:48;94551.56;;;10.83;52.16
55466;BME280;41329;41.594;23.810;2023-04-01T01:45:18;94550.00;;;10.82;52.64
55466;BME280;41329;41.594;23.810;2023-04-01T01:47:48;94540.09;;;10.74;52.41
55466;BME280;41329;41.594;23.810;2023-04-01T01:50:15;94539.72;;;10.72;52.59
55466;BME280;41329;41.594;23.810;2023-04-01T01:52:42;94484.31;;;10.40;52.31
55466;BME280;41329;41.594;23.810;2023-04-01T01:55:26;94527.06;;;10.78;52.21
55466;BME280;41329;41.594;23.810;2023-04-01T01:57:52;94527.88;;;10.78;52.48
55466;BME280;41329;41.594;23.810;2023-04-01T02:00:19;94529.81;;;10.78;52.22
55466;BME280;41329;41.594;23.810;2023-04-01T02:02:46;94531.41;;;10.79;52.32
55466;BME280;41329;41.594;23.810;2023-04-01T02:05:20;94546.44;;;10.74;52.17
55466;BME280;41329;41.594;23.810;2023-04-01T02:08:01;94538.50;;;10.66;52.42
55466;BME280;41329;41.594;23.810;2023-04-01T02:10:28;94544.81;;;10.66;52.72
55466;BME280;41329;41.594;23.810;2023-04-01T02:12:59;94537.72;;;10.65;52.34
55466;BME280;41329;41.594;23.810;2023-04-01T02:15:27;94518.31;;;10.58;52.52
55466;BME280;41329;41.594;23.810;2023-04-01T02:17:57;94531.72;;;10.53;52.72
55466;BME280;41329;41.594;23.810;2023-04-01T02:20:23;94545.13;;;10.44;52.77
55466;BME280;41329;41.594;23.810;2023-04-01T02:22:54;94547.13;;;10.47;52.94
55466;BME280;41329;41.594;23.810;2023-04-01T02:25:27;94543.94;;;10.38;52.98
55466;BME280;41329;41.594;23.810;2023-04-01T02:27:54;94522.97;;;10.37;52.83
55466;BME280;41329;41.594;23.810;2023-04-01T02:30:22;94538.03;;;10.43;52.99
55466;BME280;41329;41.594;23.810;2023-04-01T02:32:48;94538.47;;;10.48;53.25
55466;BME280;41329;41.594;23.810;2023-04-01T02:35:16;94522.25;;;10.50;53.27
55466;BME280;41329;41.594;23.810;2023-04-01T02:37:43;94520.25;;;10.47;53.26
55466;BME280;41329;41.594;23.810;2023-04-01T02:40:12;94520.22;;;10.37;53.66
55466;BME280;41329;41.594;23.810;2023-04-01T02:42:39;94525.34;;;10.31;53.70
55466;BME280;41329;41.594;23.810;2023-04-01T02:45:05;94504.03;;;10.35;53.48
55466;BME280;41329;41.594;23.810;2023-04-01T02:47:32;94515.50;;;10.41;53.24
55466;BME280;41329;41.594;23.810;2023-04-01T02:49:57;94501.25;;;10.32;53.16
55466;BME280;41329;41.594;23.810;2023-04-01T02:52:28;94498.50;;;10.35;53.22
55466;BME280;41329;41.594;23.810;2023-04-01T02:54:54;94495.31;;;10.26;53.36
55466;BME280;41329;41.594;23.810;2023-04-01T02:57:19;94492.53;;;10.23;53.64
55466;BME280;41329;41.594;23.810;2023-04-01T02:59:45;94490.97;;;10.22;53.66
55466;BME280;41329;41.594;23.810;2023-04-01T03:02:11;94481.44;;;10.12;54.13
55466;BME280;41329;41.594;23.810;2023-04-01T03:04:36;94490.03;;;10.04;54.52
55466;BME280;41329;41.594;23.810;2023-04-01T03:07:02;94492.00;;;9.93;55.11
55466;BME280;41329;41.594;23.810;2023-04-01T03:09:27;94490.00;;;9.93;55.16
55466;BME280;41329;41.594;23.810;2023-04-01T03:11:53;94442.88;;;9.58;54.96
55466;BME280;41329;41.594;23.810;2023-04-01T03:14:19;94491.16;;;9.85;55.24
55466;BME280;41329;41.594;23.810;2023-04-01T03:16:45;94474.50;;;9.71;55.43
55466;BME280;41329;41.594;23.810;2023-04-01T03:19:10;94486.78;;;9.81;55.30
55466;BME280;41329;41.594;23.810;2023-04-01T03:21:35;94490.75;;;9.80;55.50
55466;BME280;41329;41.594;23.810;2023-04-01T03:24:01;94479.19;;;9.60;56.03
55466;BME280;41329;41.594;23.810;2023-04-01T03:26:27;94500.53;;;9.70;56.15
55466;BME280;41329;41.594;23.810;2023-04-01T03:28:53;94494.25;;;9.73;56.25
55466;BME280;41329;41.594;23.810;2023-04-01T03:31:20;94491.50;;;9.77;56.28
55466;BME280;41329;41.594;23.810;2023-04-01T03:33:45;94443.19;;;9.39;56.46
55466;BME280;41329;41.594;23.810;2023-04-01T03:36:11;94462.59;;;9.57;56.24
55466;BME280;41329;41.594;23.810;2023-04-01T03:38:39;94477.25;;;9.71;56.17
55466;BME280;41329;41.594;23.810;2023-04-01T03:41:05;94465.41;;;9.67;56.06
55466;BME280;41329;41.594;23.810;2023-04-01T03:43:30;94478.47;;;9.74;56.68
55466;BME280;41329;41.594;23.810;2023-04-01T03:45:56;94478.88;;;9.76;56.50
55466;BME280;41329;41.594;23.810;2023-04-01T03:48:23;94471.38;;;9.76;56.10
55466;BME280;41329;41.594;23.810;2023-04-01T03:50:48;94462.31;;;9.76;56.39
55466;BME280;41329;41.594;23.810;2023-04-01T03:53:14;94426.25;;;9.44;56.87
55466;BME280;41329;41.594;23.810;2023-04-01T03:55:40;94453.94;;;9.62;56.88
55466;BME280;41329;41.594;23.810;2023-04-01T03:58:06;94461.50;;;9.72;56.46
55466;BME280;41329;41.594;23.810;2023-04-01T04:00:32;94467.41;;;9.74;56.66
55466;BME280;41329;41.594;23.810;2023-04-01T04:02:58;94461.88;;;9.67;56.69
55466;BME280;41329;41.594;23.810;2023-04-01T04:05:25;94442.09;;;9.61;56.63
55466;BME280;41329;41.594;23.810;2023-04-01T04:07:51;94463.50;;;9.75;56.79
55466;BME280;41329;41.594;23.810;2023-04-01T04:10:16;94449.63;;;9.71;57.36
55466;BME280;41329;41.594;23.810;2023-04-01T04:12:42;94457.56;;;9.76;57.23
55466;BME280;41329;41.594;23.810;2023-04-01T04:15:08;94450.06;;;9.77;56.99
55466;BME280;41329;41.594;23.810;2023-04-01T04:17:34;94459.56;;;9.83;57.13
55466;BME280;41329;41.594;23.810;2023-04-01T04:19:59;94466.59;;;9.70;57.25
55466;BME280;41329;41.594;23.810;2023-04-01T04:22:25;94468.97;;;9.71;57.04
55466;BME280;41329;41.594;23.810;2023-04-01T04:24:50;94410.44;;;9.45;57.00
55466;BME280;41329;41.594;23.810;2023-04-01T04:27:15;94454.44;;;9.81;57.38
55466;BME280;41329;41.594;23.810;2023-04-01T04:29:41;94463.13;;;9.83;57.04
55466;BME280;41329;41.594;23.810;2023-04-01T04:32:06;94466.53;;;9.56;57.74
55466;BME280;41329;41.594;23.810;2023-04-01T04:34:32;94458.25;;;9.52;57.76
55466;BME280;41329;41.594;23.810;2023-04-01T04:36:58;94431.38;;;9.46;57.44
55466;BME280;41329;41.594;23.810;2023-04-01T04:39:23;94453.53;;;9.63;57.64
55466;BME280;41329;41.594;23.810;2023-04-01T04:41:49;94438.13;;;9.55;57.51
55466;BME280;41329;41.594;23.810;2023-04-01T04:44:14;94449.19;;;9.59;57.53
55466;BME280;41329;41.594;23.810;2023-04-01T04:46:40;94466.19;;;9.64;57.77
55466;BME280;41329;41.594;23.810;2023-04-01T04:49:06;94463.81;;;9.66;57.86
55466;BME280;41329;41.594;23.810;2023-04-01T04:51:31;94460.25;;;9.62;58.39
55466;BME280;41329;41.594;23.810;2023-04-01T04:54:02;94463.75;;;9.52;58.79
55466;BME280;41329;41.594;23.810;2023-04-01T04:56:28;94435.28;;;9.45;58.59
55466;BME280;41329;41.594;23.810;2023-04-01T04:58:54;94444.84;;;9.58;58.34
55466;BME280;41329;41.594;23.810;2023-04-01T05:01:20;94427.06;;;9.55;58.50
55466;BME280;41329;41.594;23.810;2023-04-01T05:03:46;94433.03;;;9.61;58.48
55466;BME280;41329;41.594;23.810;2023-04-01T05:06:13;94425.53;;;9.61;58.36
55466;BME280;41329;41.594;23.810;2023-04-01T05:08:43;94433.06;;;9.68;58.99
55466;BME280;41329;41.594;23.810;2023-04-01T05:11:13;94430.25;;;9.61;59.27
55466;BME280;41329;41.594;23.810;2023-04-01T05:13:39;94429.44;;;9.50;59.48
55466;BME280;41329;41.594;23.810;2023-04-01T05:16:11;94434.19;;;9.60;59.62
55466;BME280;41329;41.594;23.810;2023-04-01T05:18:37;94425.50;;;9.54;59.84
55466;BME280;41329;41.594;23.810;2023-04-01T05:21:04;94438.63;;;9.75;59.62
55466;BME280;41329;41.594;23.810;2023-04-01T05:23:31;94441.00;;;9.80;59.68
55466;BME280;41329;41.594;23.810;2023-04-01T05:25:57;94438.63;;;9.78;59.67
55466;BME280;41329;41.594;23.810;2023-04-01T05:28:22;94430.78;;;9.84;59.46
55466;BME280;41329;41.594;23.810;2023-04-01T05:30:48;94426.44;;;9.93;59.37
55466;BME280;41329;41.594;23.810;2023-04-01T05:33:14;94432.00;;;9.97;59.48
55466;BME280;41329;41.594;23.810;2023-04-01T05:35:40;94430.03;;;10.04;59.22
55466;BME280;41329;41.594;23.810;2023-04-01T05:38:05;94422.59;;;10.08;59.21
55466;BME280;41329;41.594;23.810;2023-04-01T05:40:32;94403.59;;;10.00;59.51
55466;BME280;41329;41.594;23.810;2023-04-01T05:42:58;94424.19;;;10.16;59.68
55466;BME280;41329;41.594;23.810;2023-04-01T05:45:24;94403.25;;;10.12;59.99
55466;BME280;41329;41.594;23.810;2023-04-01T05:47:50;94358.16;;;9.97;59.73
55466;BME280;41329;41.594;23.810;2023-04-01T05:50:16;94407.28;;;10.39;59.40
55466;BME280;41329;41.594;23.810;2023-04-01T05:52:41;94377.63;;;10.36;59.72
55466;BME280;41329;41.594;23.810;2023-04-01T05:55:07;94385.56;;;10.55;59.09
55466;BME280;41329;41.594;23.810;2023-04-01T05:57:33;94376.88;;;10.49;59.07
55466;BME280;41329;41.594;23.810;2023-04-01T05:59:58;94363.81;;;10.46;59.39
55466;BME280;41329;41.594;23.810;2023-04-01T06:02:24;94365.38;;;10.37;59.51
55466;BME280;41329;41.594;23.810;2023-04-01T06:04:56;94361.84;;;10.43;59.51
55466;BME280;41329;41.594;23.810;2023-04-01T06:07:27;94355.13;;;10.41;59.40
55466;BME280;41329;41.594;23.810;2023-04-01T06:09:54;94359.09;;;10.36;59.33
55466;BME280;41329;41.594;23.810;2023-04-01T06:12:45;94347.19;;;10.15;59.85
55466;BME280;41329;41.594;23.810;2023-04-01T06:18:03;94363.31;;;9.92;60.61
55466;BME280;41329;41.594;23.810;2023-04-01T06:44:35;94332.47;;;9.79;64.93
55466;BME280;41329;41.594;23.810;2023-04-01T06:47:21;94322.72;;;10.10;64.05
55466;BME280;41329;41.594;23.810;2023-04-01T06:52:39;94330.63;;;10.46;62.64
55466;BME280;41329;41.594;23.810;2023-04-01T06:57:47;94307.28;;;10.86;61.41
55466;BME280;41329;41.594;23.810;2023-04-01T07:00:27;94268.19;;;10.77;59.97
55466;BME280;41329;41.594;23.810;2023-04-01T07:03:06;94272.91;;;10.87;59.49
55466;BME280;41329;41.594;23.810;2023-04-01T07:05:35;94275.66;;;10.90;59.34
55466;BME280;41329;41.594;23.810;2023-04-01T07:08:08;94266.53;;;11.00;59.72
55466;BME280;41329;41.594;23.810;2023-04-01T07:11:11;94230.63;;;10.86;58.64
55466;BME280;41329;41.594;23.810;2023-04-01T07:13:51;94274.34;;;11.26;58.64
55466;BME280;41329;41.594;23.810;2023-04-01T07:16:25;94278.72;;;11.24;57.89
55466;BME280;41329;41.594;23.810;2023-04-01T07:21:48;94315.41;;;11.56;56.85
55466;BME280;41329;41.594;23.810;2023-04-01T07:24:37;94304.69;;;11.65;56.80
55466;BME280;41329;41.594;23.810;2023-04-01T07:27:08;94291.91;;;11.88;57.99
55466;BME280;41329;41.594;23.810;2023-04-01T07:29:34;94293.34;;;12.14;58.11
55466;BME280;41329;41.594;23.810;2023-04-01T07:43:43;94242.63;;;12.57;54.45
55466;BME280;41329;41.594;23.810;2023-04-01T07:49:18;94278.31;;;13.03;54.49
55466;BME280;41329;41.594;23.810;2023-04-01T07:51:53;94247.69;;;13.10;54.42
55466;BME280;41329;41.594;23.810;2023-04-01T07:57:30;94234.69;;;13.67;54.38
55466;BME280;41329;41.594;23.810;2023-04-01T08:05:27;94181.88;;;13.67;52.34
55466;BME280;41329;41.594;23.810;2023-04-01T08:11:08;94238.66;;;13.96;51.74
55466;BME280;41329;41.594;23.810;2023-04-01T08:16:35;94209.72;;;13.90;53.20
55466;BME280;41329;41.594;23.810;2023-04-01T08:21:49;94212.56;;;14.63;54.86
55466;BME280;41329;41.594;23.810;2023-04-01T08:24:29;94187.53;;;14.82;53.37
55466;BME280;41329;41.594;23.810;2023-04-01T08:27:00;94195.03;;;15.08;51.67
55466;BME280;41329;41.594;23.810;2023-04-01T08:32:23;94171.13;;;15.27;50.61
55466;BME280;41329;41.594;23.810;2023-04-01T08:35:22;94148.69;;;15.37;49.99
55466;BME280;41329;41.594;23.810;2023-04-01T08:37:53;94142.38;;;15.33;48.60
55466;BME280;41329;41.594;23.810;2023-04-01T09:20:30;94088.28;;;16.46;50.91
55466;BME280;41329;41.594;23.810;2023-04-01T09:25:45;94090.09;;;16.97;47.93
55466;BME280;41329;41.594;23.810;2023-04-01T09:34:21;94056.13;;;17.52;46.59
55466;BME280;41329;41.594;23.810;2023-04-01T09:37:17;94039.78;;;17.76;48.08
55466;BME280;41329;41.594;23.810;2023-04-01T09:40:01;94047.22;;;18.17;46.32
55466;BME280;41329;41.594;23.810;2023-04-01T09:45:17;94033.31;;;18.26;41.03
55466;BME280;41329;41.594;23.810;2023-04-01T09:50:42;94023.34;;;18.93;41.84
55466;BME280;41329;41.594;23.810;2023-04-01T10:10:27;93994.97;;;19.12;38.21
55466;BME280;41329;41.594;23.810;2023-04-01T10:18:56;93993.22;;;19.06;37.05
55466;BME280;41329;41.594;23.810;2023-04-01T10:25:03;93996.13;;;19.45;37.02
55466;BME280;41329;41.594;23.810;2023-04-01T10:36:13;93956.59;;;19.00;37.49
55466;BME280;41329;41.594;23.810;2023-04-01T10:39:19;93960.13;;;18.92;37.22
55466;BME280;41329;41.594;23.810;2023-04-01T11:04:56;93934.47;;;18.16;37.17
55466;BME280;41329;41.594;23.810;2023-04-01T11:25:23;93900.72;;;17.51;36.81
55466;BME280;41329;41.594;23.810;2023-04-01T11:39:59;93900.63;;;17.55;38.42
55466;BME280;41329;41.594;23.810;2023-04-01T11:42:55;93892.78;;;17.62;38.17
55466;BME280;41329;41.594;23.810;2023-04-01T11:50:58;93871.78;;;17.58;37.87
55466;BME280;41329;41.594;23.810;2023-04-01T12:13:59;93861.03;;;18.46;36.67
55466;BME280;41329;41.594;23.810;2023-04-01T12:16:47;93869.78;;;18.57;36.96
55466;BME280;41329;41.594;23.810;2023-04-01T12:41:02;93811.41;;;17.35;40.71
55466;BME280;41329;41.594;23.810;2023-04-01T12:48:57;93835.63;;;17.38;40.95
55466;BME280;41329;41.594;23.810;2023-04-01T12:51:53;93836.56;;;17.35;41.59
55466;BME280;41329;41.594;23.810;2023-04-01T12:59:57;93833.00;;;17.10;42.21
55466;BME280;41329;41.594;23.810;2023-04-01T13:03:11;93841.41;;;17.10;42.45
55466;BME280;41329;41.594;23.810;2023-04-01T13:05:50;93844.19;;;17.10;42.16
55466;BME280;41329;41.594;23.810;2023-04-01T13:11:22;93858.25;;;17.19;41.27
55466;BME280;41329;41.594;23.810;2023-04-01T13:14:30;93880.16;;;17.45;41.93
55466;BME280;41329;41.594;23.810;2023-04-01T13:17:04;93918.06;;;17.34;43.20
55466;BME280;41329;41.594;23.810;2023-04-01T13:27:53;93973.19;;;15.50;56.85
55466;BME280;41329;41.594;23.810;2023-04-01T13:30:24;93971.63;;;15.49;58.46
55466;BME280;41329;41.594;23.810;2023-04-01T13:33:01;93978.31;;;15.35;59.23
55466;BME280;41329;41.594;23.810;2023-04-01T13:38:52;93978.59;;;15.41;59.47
55466;BME280;41329;41.594;23.810;2023-04-01T13:41:54;93986.16;;;15.40;59.37
55466;BME280;41329;41.594;23.810;2023-04-01T13:44:32;93994.16;;;15.38;59.80
55466;BME280;41329;41.594;23.810;2023-04-01T14:01:06;93973.97;;;15.34;62.46
55466;BME280;41329;41.594;23.810;2023-04-01T14:10:18;93982.97;;;15.22;62.44
55466;BME280;41329;41.594;23.810;2023-04-01T14:20:53;94003.28;;;15.23;61.42
55466;BME280;41329;41.594;23.810;2023-04-01T14:29:02;93990.91;;;14.88;59.05
55466;BME280;41329;41.594;23.810;2023-04-01T14:37:36;93982.75;;;14.62;58.24
55466;BME280;41329;41.594;23.810;2023-04-01T14:40:26;93984.78;;;14.77;59.25
55466;BME280;41329;41.594;23.810;2023-04-01T14:43:01;93952.16;;;14.78;59.48
55466;BME280;41329;41.594;23.810;2023-04-01T14:51:16;93920.81;;;15.09;62.53
55466;BME280;41329;41.594;23.810;2023-04-01T14:53:53;93930.13;;;15.19;61.95
55466;BME280;41329;41.594;23.810;2023-04-01T14:56:41;93930.84;;;15.23;61.80
55466;BME280;41329;41.594;23.810;2023-04-01T15:07:20;93850.94;;;14.52;61.62
55466;BME280;41329;41.594;23.810;2023-04-01T15:12:36;93880.44;;;14.30;59.94
55466;BME280;41329;41.594;23.810;2023-04-01T15:15:39;93881.03;;;14.41;61.51
55466;BME280;41329;41.594;23.810;2023-04-01T15:18:23;93878.72;;;14.56;61.17
55466;BME280;41329;41.594;23.810;2023-04-01T15:21:29;93888.34;;;14.51;61.74
55466;BME280;41329;41.594;23.810;2023-04-01T15:24:24;93887.63;;;14.47;61.40
55466;BME280;41329;41.594;23.810;2023-04-01T15:37:53;93881.88;;;14.90;58.97
55466;BME280;41329;41.594;23.810;2023-04-01T15:46:25;93887.66;;;15.15;59.08
55466;BME280;41329;41.594;23.810;2023-04-01T16:09:07;93988.50;;;14.12;65.00
55466;BME280;41329;41.594;23.810;2023-04-01T16:14:48;93984.47;;;13.94;63.35
55466;BME280;41329;41.594;23.810;2023-04-01T16:18:00;93983.41;;;13.65;63.16
55466;BME280;41329;41.594;23.810;2023-04-01T16:20:50;93973.53;;;13.60;63.12
55466;BME280;41329;41.594;23.810;2023-04-01T16:23:18;93969.84;;;13.67;63.80
55466;BME280;41329;41.594;23.810;2023-04-01T16:26:07;93956.94;;;13.57;63.31
55466;BME280;41329;41.594;23.810;2023-04-01T16:28:38;93925.94;;;13.35;63.14
55466;BME280;41329;41.594;23.810;2023-04-01T16:34:14;93982.28;;;13.59;62.92
55466;BME280;41329;41.594;23.810;2023-04-01T16:36:52;93990.81;;;13.48;62.34
55466;BME280;41329;41.594;23.810;2023-04-01T16:45:30;94024.56;;;12.94;64.17
55466;BME280;41329;41.594;23.810;2023-04-01T16:48:00;94016.28;;;12.90;65.10
55466;BME280;41329;41.594;23.810;2023-04-01T16:50:55;94007.66;;;12.85;65.77
55466;BME280;41329;41.594;23.810;2023-04-01T16:56:22;94009.06;;;12.96;65.23
55466;BME280;41329;41.594;23.810;2023-04-01T16:58:57;94005.44;;;13.03;65.15
55466;BME280;41329;41.594;23.810;2023-04-01T17:01:29;94000.28;;;13.01;64.91
55466;BME280;41329;41.594;23.810;2023-04-01T17:10:13;94017.69;;;12.75;65.19
55466;BME280;41329;41.594;23.810;2023-04-01T17:12:48;94001.84;;;12.46;66.02
55466;BME280;41329;41.594;23.810;2023-04-01T17:15:47;94024.75;;;12.49;66.02
55466;BME280;41329;41.594;23.810;2023-04-01T17:21:07;94011.84;;;12.36;65.96
55466;BME280;41329;41.594;23.810;2023-04-01T17:24:06;94012.44;;;12.20;66.29
55466;BME280;41329;41.594;23.810;2023-04-01T17:27:35;94035.09;;;12.12;67.13
55466;BME280;41329;41.594;23.810;2023-04-01T17:41:11;94028.66;;;11.85;67.10
55466;BME280;41329;41.594;23.810;2023-04-01T17:47:05;94047.66;;;11.83;67.20
55466;BME280;41329;41.594;23.810;2023-04-01T17:49:41;94048.41;;;11.87;67.12
55466;BME280;41329;41.594;23.810;2023-04-01T17:55:15;94029.09;;;11.80;66.79
55466;BME280;41329;41.594;23.810;2023-04-01T18:00:39;94054.81;;;11.80;66.53
55466;BME280;41329;41.594;23.810;2023-04-01T18:06:20;94054.75;;;11.40;67.16
55466;BME280;41329;41.594;23.810;2023-04-01T18:11:44;94075.19;;;11.56;67.15
55466;BME280;41329;41.594;23.810;2023-04-01T18:22:34;94106.59;;;11.36;67.75
55466;BME280;41329;41.594;23.810;2023-04-01T18:27:41;94096.72;;;11.35;68.04
55466;BME280;41329;41.594;23.810;2023-04-01T18:30:14;94105.19;;;11.07;68.97
55466;BME280;41329;41.594;23.810;2023-04-01T18:33:19;94104.38;;;11.13;69.11
55466;BME280;41329;41.594;23.810;2023-04-01T18:41:12;94116.16;;;11.24;68.60
55466;BME280;41329;41.594;23.810;2023-04-01T18:46:53;94131.34;;;10.92;68.60
55466;BME280;41329;41.594;23.810;2023-04-01T18:49:41;94151.53;;;10.85;68.60
55466;BME280;41329;41.594;23.810;2023-04-01T18:52:16;94150.44;;;10.69;68.79
55466;BME280;41329;41.594;23.810;2023-04-01T18:57:22;94166.94;;;10.93;69.12
55466;BME280;41329;41.594;23.810;2023-04-01T19:02:42;94181.94;;;10.99;69.06
55466;BME280;41329;41.594;23.810;2023-04-01T19:05:18;94172.03;;;11.02;68.81
55466;BME280;41329;41.594;23.810;2023-04-01T19:07:49;94171.59;;;11.10;68.78
55466;BME280;41329;41.594;23.810;2023-04-01T19:15:39;94175.03;;;11.35;67.71
55466;BME280;41329;41.594;23.810;2023-04-01T19:18:22;94117.88;;;11.04;67.77
55466;BME280;41329;41.594;23.810;2023-04-01T19:32:55;94189.44;;;10.99;68.24
55466;BME280;41329;41.594;23.810;2023-04-01T19:35:52;94200.53;;;10.95;68.35
55466;BME280;41329;41.594;23.810;2023-04-01T19:41:40;94197.78;;;10.88;68.81
55466;BME280;41329;41.594;23.810;2023-04-01T19:47:22;94203.69;;;10.94;68.39
55466;BME280;41329;41.594;23.810;2023-04-01T19:52:35;94209.66;;;10.89;68.33
55466;BME280;41329;41.594;23.810;2023-04-01T20:00:41;94202.56;;;10.81;67.73
55466;BME280;41329;41.594;23.810;2023-04-01T20:03:25;94218.38;;;10.77;67.61
55466;BME280;41329;41.594;23.810;2023-04-01T20:11:57;94212.13;;;10.52;68.79
55466;BME280;41329;41.594;23.810;2023-04-01T20:14:30;94218.03;;;10.57;68.46
55466;BME280;41329;41.594;23.810;2023-04-01T20:17:23;94221.19;;;10.63;68.28
55466;BME280;41329;41.594;23.810;2023-04-01T20:27:50;94218.44;;;10.63;66.93
55466;BME280;41329;41.594;23.810;2023-04-01T20:30:50;94221.59;;;10.61;66.86
55466;BME280;41329;41.594;23.810;2023-04-01T20:46:56;94241.78;;;10.37;67.73
55466;BME280;41329;41.594;23.810;2023-04-01T20:57:38;94244.16;;;10.25;66.90
55466;BME280;41329;41.594;23.810;2023-04-01T21:00:33;94259.53;;;10.08;67.21
55466;BME280;41329;41.594;23.810;2023-04-01T21:06:18;94247.25;;;9.74;68.13
55466;BME280;41329;41.594;23.810;2023-04-01T21:14:46;94247.22;;;9.67;69.36
55466;BME280;41329;41.594;23.810;2023-04-01T21:20:33;94238.88;;;9.32;69.05
55466;BME280;41329;41.594;23.810;2023-04-01T21:23:42;94268.50;;;9.53;70.27
55466;BME280;41329;41.594;23.810;2023-04-01T21:26:26;94268.09;;;9.47;70.40
55466;BME280;41329;41.594;23.810;2023-04-01T21:29:16;94260.97;;;9.43;70.69
55466;BME280;41329;41.594;23.810;2023-04-01T21:42:42;94274.41;;;9.48;70.29
55466;BME280;41329;41.594;23.810;2023-04-01T22:06:48;94244.31;;;9.11;69.11
55466;BME280;41329;41.594;23.810;2023-04-01T22:09:26;94267.19;;;9.19;68.88
55466;BME280;41329;41.594;23.810;2023-04-01T22:12:04;94275.44;;;9.05;68.80
55466;BME280;41329;41.594;23.810;2023-04-01T22:17:20;94284.50;;;8.41;70.74
55466;BME280;41329;41.594;23.810;2023-04-01T22:19:56;94284.22;;;8.56;70.25
55466;BME280;41329;41.594;23.810;2023-04-01T22:23:16;94297.91;;;8.42;70.83
55466;BME280;41329;41.594;23.810;2023-04-01T22:31:02;94283.97;;;8.21;71.60
55466;BME280;41329;41.594;23.810;2023-04-01T22:33:50;94306.09;;;8.32;71.64
55466;BME280;41329;41.594;23.810;2023-04-01T22:39:17;94300.50;;;8.21;71.20
55466;BME280;41329;41.594;23.810;2023-04-01T22:44:47;94312.25;;;8.18;71.99
55466;BME280;41329;41.594;23.810;2023-04-01T22:49:56;94316.50;;;8.12;72.52
55466;BME280;41329;41.594;23.810;2023-04-01T22:52:43;94322.81;;;8.09;72.76
55466;BME280;41329;41.594;23.810;2023-04-01T22:55:21;94315.75;;;8.12;73.31
55466;BME280;41329;41.594;23.810;2023-04-01T22:58:05;94333.59;;;8.25;73.40
55466;BME280;41329;41.594;23.810;2023-04-01T23:00:40;94336.00;;;8.33;72.73
55466;BME280;41329;41.594;23.810;2023-04-01T23:03:20;94329.75;;;8.40;72.12
55466;BME280;41329;41.594;23.810;2023-04-01T23:05:51;94328.16;;;8.35;71.47
55466;BME280;41329;41.594;23.810;2023-04-01T23:08:41;94338.03;;;8.40;71.27
55466;BME280;41329;41.594;23.810;2023-04-01T23:11:15;94326.38;;;8.13;70.84
55466;BME280;41329;41.594;23.810;2023-04-01T23:16:42;94326.88;;;8.22;71.31
55466;BME280;41329;41.594;23.810;2023-04-01T23:19:15;94332.78;;;8.21;71.55
55466;BME280;41329;41.594;23.810;2023-04-01T23:21:50;94328.47;;;8.23;71.80
55466;BME280;41329;41.594;23.810;2023-04-01T23:27:13;94284.63;;;8.11;70.97
55466;BME280;41329;41.594;23.810;2023-04-01T23:29:42;94348.63;;;8.34;71.25
55466;BME280;41329;41.594;23.810;2023-04-01T23:32:18;94315.09;;;7.85;70.52
55466;BME280;41329;41.594;23.810;2023-04-01T23:34:49;94357.69;;;7.95;70.61